Marco Island, FL (34145)

11:50 AM EDT on October 02, 2014 (GMT -0400)
KFLMARCO2 | Change Station
CLOSE
Current Station
Personal Weather Station
Location: Marco Island, FL
Elevation: 10 ft
Nearby Weather Stations

Elev 10 ft 25.93 °N, 81.71 °W | Updated 9 minutes ago

Clear
Clear
88.1 °F
Feels Like 85 °F
N
0.0
Wind Variable Wind from NW

Today
High -- | Low -- °F
--% Chance of Precip.
Yesterday
High -- | Low -- °F
Precip. -- in
7:19 AM 7:12 PM
First Quarter, 60% visible
Pressure 30.04 in
Visibility 10.0 miles
Clouds Scattered Clouds 2300 ft
Heat Index 85 °F
Dew Point 41 °F
Humidity 19%
Rainfall 0.00 in
Snow Depth Not available.
UV 6.3 out of 12
Pollen 3.40 out of 12
Air Quality Not available.
Flu Activity Not available.
METAR KMKY 021535Z AUTO 29004KT 10SM SCT023 31/24 A3004 RMK AO1

More Conditions Fewer Conditions

Pressure 30.04 in
Visibility 10.0 miles
Clouds Scattered Clouds 2300 ft
Heat Index 85 °F
Dew Point 41 °F
Humidity 19%
Rainfall 0.00 in
Snow Depth Not available.
UV 6.3 out of 12
Pollen 3.40 out of 12
Air Quality Not available.
Flu Activity Not available.
METAR KMKY 021535Z AUTO 29004KT 10SM SCT023 31/24 A3004 RMK AO1

More Conditions Fewer Conditions

10-Day Weather Forecast

Almanac

Astronomy

Oct. 02, 2014 Rise Set
Actual Time 7:19 AM EDT 7:12 PM EDT
Civil Twilight 6:56 AM EDT 7:35 PM EDT
Nautical Twilight 6:29 AM EDT 8:02 PM EDT
Astronomical Twilight 6:03 AM EDT 8:28 PM EDT
Moon 2:47 PM EDT 1:07 AM EDT
Length of Visible Light 12h 38m
Length of Day
11h 52m
Tomorrow will be 1m 30s shorter.
First Quarter, 60% of the Moon is Illuminated
Today
First Quarter
Oct 8
Full
Oct 15
Last Quarter
Oct 23
New
Oct 30
First Quarter

Today's Extremes

State Highs State Lows

Community

WunderPhotos

Upload Photos

1,758,276 photos uploaded!

WunderBlogs® & News

Nearby

Snow Depth

Station Depth Elevation
No new snow has been reported.

Earthquake Activity

City Distance Mag. Time & Date
No recent earthquake activity has been reported nearby.
Minimum magnitude displayed is 2.5.

Coastal Water Temperatures

Place Temperature
Naples, FL 88.0 °F

Nearby Weather Stations